Terminal Aerodrome Forecast
Issued by NWS Grand Junction, CO

Home | Current Version | Previous Version | Text Only | Print | Product List | Glossary On
Versions: 1 2 3 4 5 6 7 8 9 10 11 12 13 14
000
FTUS45 KGJT 262336
TAFGJT
TAF
KGJT 262336Z 2700/2724 09004KT P6SM FEW150
     FM270600 12007KT P6SM BKN090
     FM271400 16010KT P6SM VCSH OVC035
     FM271900 24017G24KT P6SM BKN045=

USA.gov is the U.S. government's official web portal to all federal, state and local government web resources and services.